Time;durP1;ratioP1;P1;durP2;ratioP2;P2;SDS_P1;SDS_P2;PMS_P1;PMS_P2;Temp;Humidity;BMP_temperature;BMP_pressure;BME280_temperature;BME280_humidity;BME280_pressure;Samples;Min_cycle;Max_cycle;Signal;HPM_P1;HPM_P2
2021/11/23 00:00:27;;;;;;;155.18;78.82;;;;;;;7.45;76.10;95382.47;5007505;28;20116;-78
2021/11/23 00:02:54;;;;;;;135.48;72.88;;;;;;;7.48;75.72;95380.28;5005875;28;20022;-78
2021/11/23 00:05:20;;;;;;;152.77;79.18;;;;;;;7.53;75.62;95377.97;5007205;28;20037;-79
2021/11/23 00:07:45;;;;;;;159.60;82.00;;;;;;;7.53;75.68;95383.31;5007995;28;20076;-78
2021/11/23 00:10:11;;;;;;;150.90;78.20;;;;;;;7.56;75.64;95389.34;5006100;28;20489;-78
2021/11/23 00:12:36;;;;;;;151.38;80.10;;;;;;;7.52;76.38;95388.81;5007912;28;20029;-78
2021/11/23 00:15:02;;;;;;;151.50;79.65;;;;;;;7.38;77.31;95387.59;5006442;28;20408;-78
2021/11/23 00:17:27;;;;;;;138.90;75.28;;;;;;;7.40;76.71;95390.91;5006158;28;20034;-78
2021/11/23 00:19:53;;;;;;;138.82;74.95;;;;;;;7.37;77.12;95391.22;5007023;28;20504;-78
2021/11/23 00:22:18;;;;;;;137.02;70.57;;;;;;;7.41;76.26;95389.94;4989363;28;20041;-78
2021/11/23 00:24:44;;;;;;;129.35;71.32;;;;;;;7.46;76.27;95389.47;4989756;28;20029;-78
2021/11/23 00:27:09;;;;;;;148.98;76.57;;;;;;;7.43;76.52;95395.97;5005664;28;20492;-77
2021/11/23 00:29:35;;;;;;;145.35;76.03;;;;;;;7.42;76.46;95394.25;5007899;28;20022;-77
2021/11/23 00:32:02;;;;;;;149.15;76.38;;;;;;;7.45;76.32;95399.28;5005667;28;20057;-77
2021/11/23 00:34:28;;;;;;;160.85;79.38;;;;;;;7.48;76.27;95396.28;5005875;28;20056;-78
2021/11/23 00:36:55;;;;;;;166.93;81.97;;;;;;;7.48;76.19;95393.63;5006373;28;20042;-78
2021/11/23 00:39:20;;;;;;;175.35;85.40;;;;;;;7.49;76.26;95391.81;5007041;28;20022;-78
2021/11/23 00:41:49;;;;;;;163.73;81.60;;;;;;;7.50;76.27;95390.78;5007021;28;20026;-79
2021/11/23 00:44:15;;;;;;;157.18;80.15;;;;;;;7.51;76.12;95393.31;5005103;28;20419;-78
2021/11/23 00:46:40;;;;;;;168.77;81.30;;;;;;;7.50;76.59;95396.13;5006220;28;20093;-78
2021/11/23 00:49:06;;;;;;;163.48;82.45;;;;;;;7.45;76.95;95387.78;5005410;28;20157;-77
2021/11/23 00:51:31;;;;;;;157.43;78.93;;;;;;;7.48;76.51;95393.63;5007352;28;20038;-77
2021/11/23 00:53:57;;;;;;;163.75;81.05;;;;;;;7.48;76.30;95393.63;5004580;28;20043;-78
2021/11/23 00:56:22;;;;;;;161.50;84.32;;;;;;;7.38;77.69;95393.72;5006094;28;20030;-77
2021/11/23 00:58:48;;;;;;;152.48;78.90;;;;;;;7.36;77.54;95390.41;5006435;28;20493;-77
2021/11/23 01:01:13;;;;;;;145.57;77.13;;;;;;;7.38;77.31;95388.41;5006638;28;20084;-78
2021/11/23 01:03:38;;;;;;;152.80;79.93;;;;;;;7.40;77.24;95389.09;5006989;28;20029;-78
2021/11/23 01:06:04;;;;;;;150.05;78.90;;;;;;;7.39;77.38;95395.44;5005698;28;20409;-77
2021/11/23 01:08:30;;;;;;;160.90;80.70;;;;;;;7.32;77.92;95393.56;5007167;28;20034;-77
2021/11/23 01:10:56;;;;;;;160.85;81.88;;;;;;;7.33;77.52;95389.88;5005815;28;20022;-78
2021/11/23 01:13:21;;;;;;;157.35;80.63;;;;;;;7.40;77.22;95391.75;5006794;28;20034;-78
2021/11/23 01:15:47;;;;;;;157.55;82.25;;;;;;;7.38;77.69;95396.41;5004370;28;20037;-78
2021/11/23 01:18:12;;;;;;;158.70;79.72;;;;;;;7.34;77.97;95392.38;5006396;28;20022;-78
2021/11/23 01:20:38;;;;;;;149.30;77.85;;;;;;;7.37;77.53;95391.22;5006451;28;20527;-78
2021/11/23 01:23:03;;;;;;;162.18;82.07;;;;;;;7.27;78.52;95397.50;5004936;28;20061;-77
2021/11/23 01:25:29;;;;;;;151.30;79.15;;;;;;;7.28;78.00;95401.88;5006443;28;20034;-78
2021/11/23 01:27:54;;;;;;;144.07;79.53;;;;;;;7.35;77.91;95398.56;5005697;28;20116;-77
2021/11/23 01:30:20;;;;;;;148.40;79.78;;;;;;;7.40;77.68;95396.25;5006881;28;20018;-78
2021/11/23 01:32:45;;;;;;;154.43;79.05;;;;;;;7.47;77.06;95401.78;5005266;28;20056;-78
2021/11/23 01:35:14;;;;;;;164.88;81.07;;;;;;;7.36;78.37;95394.91;5005077;28;20417;-78
2021/11/23 01:37:41;;;;;;;148.25;75.90;;;;;;;7.31;77.68;95390.03;5004463;28;20038;-78
2021/11/23 01:40:07;;;;;;;146.25;75.70;;;;;;;7.41;76.98;95397.94;5006021;28;20030;-78
2021/11/23 01:42:33;;;;;;;136.32;74.47;;;;;;;7.39;76.94;95398.09;5006243;28;20492;-78
2021/11/23 01:44:58;;;;;;;143.23;77.93;;;;;;;7.38;77.36;95398.25;5004832;28;20029;-77
2021/11/23 01:47:24;;;;;;;138.35;73.50;;;;;;;7.39;77.10;95399.91;5006092;28;20022;-78
2021/11/23 01:49:49;;;;;;;139.20;74.53;;;;;;;7.42;76.77;95399.59;5005083;28;20018;-77
2021/11/23 01:52:15;;;;;;;142.52;77.60;;;;;;;7.47;76.63;95402.63;4988835;28;20414;-77
2021/11/23 01:54:41;;;;;;;159.25;81.38;;;;;;;7.52;76.55;95411.00;5005530;28;20067;-78
2021/11/23 01:57:06;;;;;;;183.90;92.18;;;;;;;7.52;76.44;95400.34;5005103;28;20026;-78
2021/11/23 01:59:32;;;;;;;206.95;103.72;;;;;;;7.51;76.63;95403.97;5005765;28;20354;-79
2021/11/23 02:01:57;;;;;;;199.32;101.43;;;;;;;7.63;75.96;95412.56;5006175;28;20432;-79
2021/11/23 02:04:23;;;;;;;190.07;99.90;;;;;;;7.60;76.30;95412.88;5004931;28;20054;-78
2021/11/23 02:06:48;;;;;;;171.70;93.07;;;;;;;7.57;76.70;95410.53;5005671;28;20034;-77
2021/11/23 02:09:14;;;;;;;182.05;92.88;;;;;;;7.59;76.34;95411.22;5010249;28;20030;-78
2021/11/23 02:11:39;;;;;;;175.52;91.75;;;;;;;7.59;76.70;95411.22;5007952;28;20042;-77
2021/11/23 02:14:04;;;;;;;156.00;85.68;;;;;;;7.59;76.53;95411.22;5008790;28;20105;-78
2021/11/23 02:16:31;;;;;;;162.73;86.80;;;;;;;7.59;76.83;95413.88;5009006;28;20021;-78
2021/11/23 02:18:56;;;;;;;152.10;78.28;;;;;;;7.60;76.62;95412.88;5009066;28;20510;-78
2021/11/23 02:21:22;;;;;;;129.00;69.43;;;;;;;7.64;76.65;95416.09;5009218;28;20041;-77
2021/11/23 02:23:47;;;;;;;117.75;66.63;;;;;;;7.66;76.23;95401.56;5009059;28;20030;-79
2021/11/23 02:26:13;;;;;;;146.13;79.80;;;;;;;7.58;77.62;95406.03;5008310;28;20058;-78
2021/11/23 02:28:38;;;;;;;148.13;80.15;;;;;;;7.53;77.46;95399.34;5006844;28;20435;-79
2021/11/23 02:31:06;;;;;;;145.85;74.88;;;;;;;7.53;77.91;95403.81;5008166;28;20033;-79
2021/11/23 02:33:32;;;;;;;140.18;76.97;;;;;;;7.48;78.57;95392.81;5006659;28;20054;-78
2021/11/23 02:36:00;;;;;;;137.63;74.10;;;;;;;7.46;78.39;95389.47;5007752;28;20661;-79
2021/11/23 02:38:26;;;;;;;140.98;76.90;;;;;;;7.48;78.63;95392.81;5008686;28;20022;-78
2021/11/23 02:40:51;;;;;;;130.90;69.53;;;;;;;7.51;78.13;95393.31;5008196;28;20034;-78
2021/11/23 02:43:17;;;;;;;108.88;60.85;;;;;;;7.57;77.61;95399.00;5009077;28;20030;-79
2021/11/23 02:45:43;;;;;;;97.18;56.42;;;;;;;7.62;77.46;95404.72;5008494;28;20018;-78
2021/11/23 02:48:09;;;;;;;103.55;55.95;;;;;;;7.65;77.45;95394.56;4991304;28;20104;-78
2021/11/23 02:50:35;;;;;;;90.47;54.13;;;;;;;7.71;76.75;95403.75;5006695;28;20515;-77
2021/11/23 02:53:00;;;;;;;104.63;60.05;;;;;;;7.70;77.17;95404.75;5008046;28;20030;-78
2021/11/23 02:55:27;;;;;;;111.07;59.38;;;;;;;7.69;77.23;95408.41;5008364;28;20022;-77
2021/11/23 02:57:52;;;;;;;106.72;61.10;;;;;;;7.67;78.10;95407.75;5007448;28;20100;-78
2021/11/23 03:00:21;;;;;;;102.75;59.35;;;;;;;7.67;77.45;95410.41;5007599;28;20033;-78
2021/11/23 03:02:47;;;;;;;101.95;57.88;;;;;;;7.70;77.14;95407.44;5008173;28;20048;-78
2021/11/23 03:05:13;;;;;;;103.90;58.13;;;;;;;7.68;77.25;95406.75;5008638;28;20563;-78
2021/11/23 03:07:39;;;;;;;106.55;59.75;;;;;;;7.74;77.10;95414.13;5006302;28;20123;-78
2021/11/23 03:10:07;;;;;;;100.85;59.75;;;;;;;7.72;77.80;95416.09;5008948;28;20033;-77
2021/11/23 03:12:33;;;;;;;127.88;63.33;;;;;;;7.68;78.23;95406.75;5006427;28;20030;-78
2021/11/23 03:14:58;;;;;;;115.60;61.55;;;;;;;7.69;78.03;95416.41;5008179;28;20092;-78
2021/11/23 03:17:24;;;;;;;99.60;57.70;;;;;;;7.69;77.88;95420.94;5008036;28;20026;-78
2021/11/23 03:19:50;;;;;;;95.13;54.22;;;;;;;7.72;77.16;95417.94;5007030;28;20029;-77
2021/11/23 03:22:15;;;;;;;97.68;54.33;;;;;;;7.74;77.49;95419.44;5007462;28;20049;-78
2021/11/23 03:24:41;;;;;;;94.50;53.08;;;;;;;7.75;77.21;95412.28;5006166;28;20420;-78
2021/11/23 03:27:07;;;;;;;93.03;54.78;;;;;;;7.77;77.48;95419.13;5008736;28;20026;-78
2021/11/23 03:29:33;;;;;;;87.05;53.05;;;;;;;7.78;77.21;95426.16;5007612;28;20029;-78
2021/11/23 03:31:58;;;;;;;91.72;53.67;;;;;;;7.79;77.57;95427.81;5007865;28;20421;-77
2021/11/23 03:34:24;;;;;;;91.50;52.88;;;;;;;7.82;77.22;95423.16;5007461;28;20042;-78
2021/11/23 03:36:49;;;;;;;91.05;54.47;;;;;;;7.81;77.94;95429.50;5007669;28;20030;-79
2021/11/23 03:39:15;;;;;;;95.30;56.85;;;;;;;7.70;78.64;95428.78;5006433;28;20030;-77
2021/11/23 03:41:40;;;;;;;92.22;54.90;;;;;;;7.73;78.16;95427.63;5007403;28;20026;-78
2021/11/23 03:44:06;;;;;;;103.93;59.65;;;;;;;7.65;79.11;95428.41;5006968;28;20064;-78
2021/11/23 03:46:31;;;;;;;97.10;56.70;;;;;;;7.60;79.42;95423.56;5007123;28;20070;-78
2021/11/23 03:48:57;;;;;;;95.43;56.50;;;;;;;7.53;79.83;95423.34;4990857;28;20018;-78
2021/11/23 03:51:23;;;;;;;98.15;54.78;;;;;;;7.58;79.04;95419.38;5006647;28;20536;-78
2021/11/23 03:53:48;;;;;;;91.22;54.28;;;;;;;7.61;78.66;95419.06;5007603;28;20416;-77
2021/11/23 03:56:14;;;;;;;84.90;51.25;;;;;;;7.62;78.66;95426.91;5007326;28;20025;-78
2021/11/23 03:58:42;;;;;;;80.97;50.33;;;;;;;7.70;77.94;95428.78;5007740;28;20037;-78
2021/11/23 04:01:08;;;;;;;84.50;51.47;;;;;;;7.75;77.73;95429.16;5007065;28;20116;-79
2021/11/23 04:03:34;;;;;;;98.45;55.63;;;;;;;7.79;77.92;95433.16;5005695;28;20049;-78
2021/11/23 04:05:59;;;;;;;117.25;62.83;;;;;;;7.77;78.00;95439.69;5006659;28;20492;-77
2021/11/23 04:08:25;;;;;;;105.65;59.95;;;;;;;7.77;77.76;95435.16;5006495;28;20097;-77
2021/11/23 04:10:50;;;;;;;113.63;62.75;;;;;;;7.84;77.25;95429.16;5007390;28;20550;-79
2021/11/23 04:13:18;;;;;;;113.15;64.22;;;;;;;7.82;77.29;95440.00;5006575;28;20036;-78
2021/11/23 04:15:44;;;;;;;115.60;62.75;;;;;;;7.82;77.20;95436.53;5007545;28;20029;-79
2021/11/23 04:18:09;;;;;;;105.18;59.83;;;;;;;7.82;77.22;95433.84;5004371;28;20581;-76
2021/11/23 04:20:35;;;;;;;104.65;59.85;;;;;;;7.82;77.12;95436.53;4996351;28;20120;-75
2021/11/23 04:23:00;;;;;;;111.38;63.50;;;;;;;7.78;77.08;95434.19;4996171;28;20061;-76
2021/11/23 04:25:26;;;;;;;151.18;79.75;;;;;;;7.77;77.11;95437.81;5006356;28;20564;-75
2021/11/23 04:27:52;;;;;;;147.27;76.35;;;;;;;7.74;77.33;95435.47;5006251;28;20033;-76
2021/11/23 04:30:18;;;;;;;140.43;73.95;;;;;;;7.77;77.38;95445.00;5005761;28;20040;-76
2021/11/23 04:32:43;;;;;;;138.05;72.32;;;;;;;7.77;77.25;95440.50;5006310;28;20049;-76
2021/11/23 04:35:09;;;;;;;138.73;73.28;;;;;;;7.76;77.48;95438.81;5004900;28;20084;-76
2021/11/23 04:37:35;;;;;;;157.05;77.75;;;;;;;7.77;77.43;95445.00;4989411;28;20034;-75
2021/11/23 04:40:02;;;;;;;149.55;80.30;;;;;;;7.79;77.40;95443.84;5005598;28;20404;-78
2021/11/23 04:42:28;;;;;;;162.88;82.65;;;;;;;7.81;77.22;95440.16;5005984;28;20026;-78
2021/11/23 04:44:53;;;;;;;159.77;83.50;;;;;;;7.82;77.37;95444.53;5006275;28;20385;-77
2021/11/23 04:47:19;;;;;;;146.27;80.97;;;;;;;7.80;77.27;95444.69;5006976;28;20421;-76
2021/11/23 04:49:44;;;;;;;156.80;79.70;;;;;;;7.79;77.38;95449.19;5014374;28;20110;-78
2021/11/23 04:52:10;;;;;;;148.25;80.28;;;;;;;7.80;77.37;95444.69;5009049;28;20037;-78
2021/11/23 04:54:35;;;;;;;191.90;99.50;;;;;;;7.85;77.18;95454.91;5005239;28;20096;-77
2021/11/23 04:57:01;;;;;;;211.73;108.18;;;;;;;7.82;77.31;95450.69;5005048;28;20044;-78
2021/11/23 04:59:26;;;;;;;191.35;97.03;;;;;;;7.84;76.99;95459.38;5007831;28;20026;-77
2021/11/23 05:01:52;;;;;;;183.48;93.70;;;;;;;7.87;77.24;95458.22;5007634;28;20018;-78
2021/11/23 05:04:17;;;;;;;194.00;103.72;;;;;;;7.88;77.19;95465.25;5005777;28;20026;-78
2021/11/23 05:06:43;;;;;;;173.30;90.60;;;;;;;7.90;77.00;95465.91;5007723;28;20026;-78
2021/11/23 05:09:08;;;;;;;154.18;80.88;;;;;;;7.88;76.79;95463.41;5006058;28;20037;-79
2021/11/23 05:11:36;;;;;;;137.20;76.57;;;;;;;7.87;77.20;95472.41;5006099;28;20033;-78
2021/11/23 05:14:01;;;;;;;147.10;77.13;;;;;;;7.88;76.93;95473.25;5004806;28;20471;-78
2021/11/23 05:16:27;;;;;;;127.60;65.93;;;;;;;7.88;76.71;95473.25;5005306;28;20030;-77
2021/11/23 05:18:52;;;;;;;112.00;63.50;;;;;;;7.90;76.60;95481.94;5006482;28;20424;-80
2021/11/23 05:21:18;;;;;;;118.72;64.18;;;;;;;7.87;77.13;95477.75;5005669;28;20473;-78
2021/11/23 05:23:43;;;;;;;110.63;62.80;;;;;;;7.86;77.20;95467.25;5007237;28;20370;-78
2021/11/23 05:26:09;;;;;;;118.35;64.43;;;;;;;7.86;77.24;95472.56;5005767;28;20475;-78
2021/11/23 05:28:34;;;;;;;115.65;63.28;;;;;;;7.87;77.37;95472.41;5005665;28;20103;-79
2021/11/23 05:31:00;;;;;;;122.88;64.43;;;;;;;7.91;77.40;95483.63;5002770;28;20022;-78
2021/11/23 05:33:25;;;;;;;125.10;64.15;;;;;;;7.91;77.55;95481.78;5005036;28;20042;-80
2021/11/23 05:35:51;;;;;;;123.97;63.25;;;;;;;7.85;78.40;95481.59;5005224;28;20018;-78
2021/11/23 05:38:18;;;;;;;118.07;65.03;;;;;;;7.87;78.34;95482.25;5005282;28;20052;-78
2021/11/23 05:40:44;;;;;;;106.38;59.72;;;;;;;7.86;78.30;95480.59;5004799;28;20021;-83
2021/11/23 05:43:10;;;;;;;108.85;58.53;;;;;;;7.80;79.71;95484.75;5008028;28;20022;-81
2021/11/23 05:45:36;;;;;;;92.90;50.28;;;;;;;7.74;80.15;95488.03;5009418;28;20101;-81
2021/11/23 05:48:01;;;;;;;81.30;45.80;;;;;;;7.79;79.78;95488.38;5009185;28;20604;-81
2021/11/23 05:50:27;;;;;;;73.30;43.65;;;;;;;7.82;80.51;95495.25;5010467;28;20030;-78
2021/11/23 05:52:52;;;;;;;69.18;40.90;;;;;;;7.86;80.46;95496.63;5008988;28;20459;-82
2021/11/23 05:55:18;;;;;;;59.75;36.78;;;;;;;7.94;79.74;95509.16;5009033;28;20030;-80
2021/11/23 05:57:43;;;;;;;50.53;29.60;;;;;;;7.97;80.70;95504.34;4991816;28;20029;-81
2021/11/23 06:00:09;;;;;;;43.88;27.05;;;;;;;8.06;79.76;95507.06;5008041;28;20038;-81
2021/11/23 06:02:35;;;;;;;46.03;27.58;;;;;;;8.08;80.23;95505.06;5009371;28;20493;-82
2021/11/23 06:05:02;;;;;;;39.30;24.83;;;;;;;8.08;80.44;95508.56;5009503;28;20026;-79
2021/11/23 06:07:28;;;;;;;37.58;24.13;;;;;;;8.15;79.63;95519.47;5008663;28;20080;-81
2021/11/23 06:09:53;;;;;;;34.53;24.42;;;;;;;8.17;79.86;95520.16;5008252;28;20497;-81
2021/11/23 06:12:19;;;;;;;30.70;21.30;;;;;;;8.24;79.70;95526.50;5010501;28;20406;-81
2021/11/23 06:14:44;;;;;;;25.52;18.58;;;;;;;8.29;79.54;95521.53;5009427;28;20026;-81
2021/11/23 06:17:10;;;;;;;26.30;18.55;;;;;;;8.30;79.50;95530.41;4992468;28;20026;-81
2021/11/23 06:19:36;;;;;;;22.15;16.42;;;;;;;8.37;79.20;95527.91;4991614;28;20026;-80
2021/11/23 06:22:02;;;;;;;21.15;14.65;;;;;;;8.43;79.18;95531.78;5009533;28;20021;-79
2021/11/23 06:24:27;;;;;;;17.08;12.85;;;;;;;8.44;79.14;95536.13;4992402;28;20480;-81
2021/11/23 06:26:53;;;;;;;16.80;12.75;;;;;;;8.46;79.28;95536.81;5004630;28;20030;-80
2021/11/23 06:29:18;;;;;;;16.90;12.98;;;;;;;8.45;79.00;95529.78;5000184;28;20096;-80
2021/11/23 06:31:44;;;;;;;12.27;10.50;;;;;;;8.43;78.90;95531.78;5008029;28;20029;-79
2021/11/23 06:34:09;;;;;;;13.30;10.73;;;;;;;8.48;78.77;95537.50;5007786;28;20045;-81
2021/11/23 06:36:35;;;;;;;11.32;9.27;;;;;;;8.49;78.62;95540.00;5005777;28;20030;-79
2021/11/23 06:39:03;;;;;;;10.75;8.73;;;;;;;8.51;78.16;95542.50;4991836;28;20568;-79
2021/11/23 06:41:28;;;;;;;10.63;8.73;;;;;;;8.52;78.10;95546.84;5009254;28;20030;-80
2021/11/23 06:43:55;;;;;;;10.00;8.27;;;;;;;8.51;78.23;95545.19;5007220;28;20022;-79
2021/11/23 06:46:20;;;;;;;9.10;7.85;;;;;;;8.53;77.90;95552.03;5008076;28;20461;-81
2021/11/23 06:48:46;;;;;;;9.88;8.52;;;;;;;8.55;77.82;95557.25;5006399;28;20025;-78
2021/11/23 06:51:11;;;;;;;10.60;7.63;;;;;;;8.57;77.86;95557.09;5009423;28;20507;-80
2021/11/23 06:53:36;;;;;;;6.72;6.03;;;;;;;8.57;77.65;95560.59;5007529;28;20034;-80
2021/11/23 06:56:02;;;;;;;7.15;6.45;;;;;;;8.53;77.63;95562.72;5008318;28;20034;-79
2021/11/23 06:58:27;;;;;;;7.30;6.32;;;;;;;8.59;77.12;95565.78;5008922;28;20026;-80
2021/11/23 07:00:53;;;;;;;6.63;6.03;;;;;;;8.58;77.04;95570.28;5006828;28;20053;-79
2021/11/23 07:03:18;;;;;;;6.85;6.13;;;;;;;8.58;77.19;95572.13;5015717;28;20452;-81
2021/11/23 07:05:44;;;;;;;6.95;6.25;;;;;;;8.57;77.23;95568.63;5008174;28;20030;-81
2021/11/23 07:08:09;;;;;;;7.13;6.43;;;;;;;8.55;77.42;95580.47;5005292;28;20034;-78
2021/11/23 07:10:35;;;;;;;6.60;5.78;;;;;;;8.51;77.00;95577.25;5008785;28;20026;-78
2021/11/23 07:13:00;;;;;;;6.88;6.20;;;;;;;8.51;77.32;95580.75;5006151;28;20038;-77
2021/11/23 07:15:26;;;;;;;6.88;6.18;;;;;;;8.47;77.45;95589.25;5005432;28;20022;-79
2021/11/23 07:17:52;;;;;;;7.65;6.85;;;;;;;8.42;77.50;95587.06;5005341;28;20511;-78
2021/11/23 07:20:17;;;;;;;8.05;7.03;;;;;;;8.40;77.27;95594.41;5006397;28;20026;-77
2021/11/23 07:22:43;;;;;;;7.63;6.90;;;;;;;8.45;77.00;95599.28;5007586;28;20030;-78
2021/11/23 07:25:08;;;;;;;9.95;7.25;;;;;;;8.44;77.03;95606.47;5007026;28;20026;-77
2021/11/23 07:27:34;;;;;;;8.85;6.97;;;;;;;8.43;76.72;95609.28;5005800;28;20033;-78
2021/11/23 07:29:59;;;;;;;9.07;8.02;;;;;;;8.38;77.07;95617.78;5007330;28;20030;-78
2021/11/23 07:32:25;;;;;;;8.80;7.90;;;;;;;8.35;77.67;95618.09;5006122;28;20025;-78
2021/11/23 07:34:50;;;;;;;9.20;8.30;;;;;;;8.37;77.10;95627.63;5007953;28;20096;-78
2021/11/23 07:37:16;;;;;;;10.00;8.68;;;;;;;8.37;77.25;95629.47;5007765;28;20037;-78
2021/11/23 07:39:43;;;;;;;10.10;9.00;;;;;;;8.35;77.35;95626.13;5007746;28;20291;-78
2021/11/23 07:42:08;;;;;;;11.27;9.55;;;;;;;8.36;77.31;95630.47;5006787;28;20030;-77
2021/11/23 07:44:34;;;;;;;11.10;9.10;;;;;;;8.39;77.18;95635.50;5005720;28;20057;-78
2021/11/23 07:46:59;;;;;;;11.32;9.23;;;;;;;8.39;77.44;95640.84;5006707;28;20041;-78
2021/11/23 07:49:24;;;;;;;10.43;9.02;;;;;;;8.34;77.61;95640.47;5007151;28;20026;-77
2021/11/23 07:51:50;;;;;;;11.98;9.82;;;;;;;8.38;77.36;95650.69;5007753;28;20026;-78
2021/11/23 07:54:16;;;;;;;10.73;8.75;;;;;;;8.45;77.03;95650.06;5007369;28;20460;-78
2021/11/23 07:56:42;;;;;;;10.77;9.23;;;;;;;8.47;76.43;95654.25;5008104;28;20032;-78
2021/11/23 07:59:08;;;;;;;9.93;8.65;;;;;;;8.37;77.39;95659.69;5006078;28;20033;-78
2021/11/23 08:01:34;;;;;;;9.57;8.57;;;;;;;8.32;77.62;95656.66;5007118;28;20105;-77
2021/11/23 08:03:59;;;;;;;11.15;9.20;;;;;;;8.26;77.36;95657.28;5006665;28;20081;-78
2021/11/23 08:06:25;;;;;;;9.77;8.52;;;;;;;8.31;77.47;95663.00;5006717;28;20401;-77
2021/11/23 08:08:50;;;;;;;11.32;9.18;;;;;;;8.35;77.59;95663.53;5007916;28;20425;-79
2021/11/23 08:11:15;;;;;;;12.15;9.75;;;;;;;8.40;77.39;95672.75;5006537;28;20448;-78
2021/11/23 08:13:41;;;;;;;14.20;10.73;;;;;;;8.45;77.06;95677.63;5006304;28;20022;-78
2021/11/23 08:16:06;;;;;;;13.60;10.00;;;;;;;8.47;77.37;95674.78;5006821;28;20022;-79
2021/11/23 08:18:33;;;;;;;12.43;9.82;;;;;;;8.47;77.04;95675.63;5007208;28;20119;-77
2021/11/23 08:20:58;;;;;;;14.95;9.93;;;;;;;8.51;76.79;95676.16;5006195;28;20610;-78
2021/11/23 08:23:24;;;;;;;11.05;9.02;;;;;;;8.56;76.57;95681.88;5006919;28;20032;-78
2021/11/23 08:25:49;;;;;;;14.13;10.02;;;;;;;8.58;76.07;95685.25;5006379;28;20030;-76
2021/11/23 08:28:15;;;;;;;15.00;10.45;;;;;;;8.59;75.97;95680.75;5006622;28;20030;-78
2021/11/23 08:30:41;;;;;;;15.68;11.25;;;;;;;8.57;75.62;95688.94;5006243;28;20495;-78
2021/11/23 08:33:06;;;;;;;16.38;11.98;;;;;;;8.58;75.38;95692.44;5004714;28;20042;-80
2021/11/23 08:35:32;;;;;;;16.77;12.23;;;;;;;8.43;76.34;95682.28;5005990;28;20099;-78
2021/11/23 08:37:57;;;;;;;15.82;12.18;;;;;;;8.44;76.27;95686.66;5006955;28;20026;-77
2021/11/23 08:40:23;;;;;;;15.75;12.50;;;;;;;8.45;76.37;95692.84;5006749;28;20080;-78
2021/11/23 08:42:50;;;;;;;15.48;12.30;;;;;;;8.42;76.18;95683.28;5006175;28;20026;-80
2021/11/23 08:45:15;;;;;;;15.68;12.43;;;;;;;8.39;76.48;95686.28;5006036;28;20018;-78
2021/11/23 08:47:41;;;;;;;16.73;12.43;;;;;;;8.40;76.50;95688.78;5007416;28;20355;-77
2021/11/23 08:50:07;;;;;;;15.52;12.70;;;;;;;8.37;76.21;95686.44;5006366;28;20022;-77
2021/11/23 08:52:33;;;;;;;16.10;12.25;;;;;;;8.38;76.42;95693.44;4989442;28;20037;-78
2021/11/23 08:54:59;;;;;;;21.80;17.95;;;;;;;8.41;76.28;95690.44;5005229;28;20030;-78
2021/11/23 08:57:24;;;;;;;16.63;12.63;;;;;;;8.36;76.11;95690.09;5006375;28;20504;-77
2021/11/23 08:59:51;;;;;;;15.40;12.00;;;;;;;8.33;76.52;95687.75;5006843;28;20028;-78
2021/11/23 09:02:16;;;;;;;19.38;12.30;;;;;;;8.28;76.26;95679.34;5006643;28;20025;-77
2021/11/23 09:04:42;;;;;;;17.38;12.23;;;;;;;8.24;76.87;95681.50;5005895;28;20459;-77
2021/11/23 09:07:09;;;;;;;17.48;11.60;;;;;;;8.23;76.41;95687.84;5006049;28;20392;-77
2021/11/23 09:09:36;;;;;;;15.45;12.48;;;;;;;8.24;76.48;95688.66;5007291;28;20083;-78
2021/11/23 09:12:03;;;;;;;17.08;12.63;;;;;;;8.19;76.47;95689.13;5004893;28;20026;-78
2021/11/23 09:14:33;;;;;;;15.57;12.30;;;;;;;8.22;77.19;95685.34;5005276;28;20408;-77
2021/11/23 09:16:58;;;;;;;17.05;13.25;;;;;;;8.21;76.70;95692.50;4989131;28;20033;-77
2021/11/23 09:19:27;;;;;;;15.82;12.57;;;;;;;8.22;76.91;95686.16;5008497;28;20034;-78
2021/11/23 09:21:53;;;;;;;18.00;13.40;;;;;;;8.23;76.88;95682.50;5009558;28;20025;-78
2021/11/23 09:24:18;;;;;;;13.85;11.63;;;;;;;8.26;76.37;95682.19;5008133;28;20076;-78
2021/11/23 09:26:46;;;;;;;14.45;11.70;;;;;;;8.17;76.74;95691.16;5010896;28;20026;-77
2021/11/23 09:29:13;;;;;;;14.70;12.10;;;;;;;8.19;76.54;95689.13;5008429;28;20164;-77
2021/11/23 09:31:40;;;;;;;14.93;12.23;;;;;;;8.16;77.02;95695.63;5010307;28;20042;-77
2021/11/23 09:34:05;;;;;;;16.42;12.73;;;;;;;8.18;76.82;95691.97;5009496;28;20067;-80
2021/11/23 09:36:31;;;;;;;16.35;11.68;;;;;;;8.20;76.51;95696.19;4992303;28;20481;-78
2021/11/23 09:38:56;;;;;;;15.07;12.10;;;;;;;8.23;76.61;95693.19;5010319;28;20508;-78
2021/11/23 09:41:22;;;;;;;14.20;10.93;;;;;;;8.26;76.31;95692.03;5007960;28;20030;-77
2021/11/23 09:43:47;;;;;;;15.93;11.60;;;;;;;8.22;75.93;95688.81;4993133;28;20034;-78
2021/11/23 09:46:13;;;;;;;15.07;11.55;;;;;;;8.24;75.88;95692.19;5007996;28;20030;-79
2021/11/23 09:48:42;;;;;;;16.50;12.05;;;;;;;8.25;76.47;95691.19;5010064;28;20018;-80
2021/11/23 09:51:28;;;;;;;14.98;11.88;;;;;;;8.29;76.15;95687.22;4991921;28;20022;-77
2021/11/23 09:53:55;;;;;;;14.43;11.05;;;;;;;8.36;75.59;95684.75;5008353;28;20415;-78
2021/11/23 09:56:20;;;;;;;14.30;11.55;;;;;;;8.39;75.53;95684.44;4992829;28;20037;-77
2021/11/23 09:58:47;;;;;;;15.63;11.63;;;;;;;8.39;75.54;95684.44;5007761;28;20022;-78
2021/11/23 10:01:12;;;;;;;17.25;11.98;;;;;;;8.42;75.13;95688.63;5010274;28;20115;-78
2021/11/23 10:03:38;;;;;;;17.67;11.80;;;;;;;8.43;74.96;95692.97;4991269;28;20118;-79
2021/11/23 10:06:18;;;;;;;15.52;11.48;;;;;;;8.40;75.03;95691.47;4992498;28;20485;-77
2021/11/23 10:08:43;;;;;;;15.15;11.38;;;;;;;8.44;75.02;95697.34;5009221;28;20036;-80
2021/11/23 10:11:10;;;;;;;16.40;11.20;;;;;;;8.46;75.37;95694.50;5008300;28;20030;-79
2021/11/23 10:13:39;;;;;;;16.42;12.35;;;;;;;8.44;75.50;95694.66;5008432;28;20041;-78
2021/11/23 10:16:04;;;;;;;13.60;10.85;;;;;;;8.46;74.55;95695.34;5008847;28;20038;-78
2021/11/23 10:18:30;;;;;;;14.65;11.10;;;;;;;8.48;74.92;95697.88;4992116;28;20030;-77
2021/11/23 10:20:59;;;;;;;12.73;10.63;;;;;;;8.45;74.60;95687.50;5007678;28;20026;-78
2021/11/23 10:23:45;;;;;;;13.23;10.40;;;;;;;8.46;74.47;95702.53;5009703;28;20110;-77
2021/11/23 10:26:15;;;;;;;16.65;10.50;;;;;;;8.39;74.27;95702.31;5008032;28;20034;-79
2021/11/23 10:28:43;;;;;;;15.60;10.38;;;;;;;8.43;74.37;95697.50;5007143;28;20488;-78
2021/11/23 10:31:08;;;;;;;13.52;9.90;;;;;;;8.39;74.63;95694.28;5008468;28;20109;-77
2021/11/23 10:33:34;;;;;;;13.65;10.43;;;;;;;8.33;74.54;95689.56;5008018;28;20539;-78
2021/11/23 10:36:01;;;;;;;14.32;10.02;;;;;;;8.32;74.64;95693.25;4975874;28;20033;-78
2021/11/23 10:38:27;;;;;;;15.63;10.05;;;;;;;8.32;74.71;95695.94;4991208;28;20058;-78
2021/11/23 10:40:53;;;;;;;12.20;9.63;;;;;;;8.28;74.62;95698.91;5007944;28;20456;-81
2021/11/23 10:43:20;;;;;;;13.75;9.65;;;;;;;8.34;74.29;95699.25;5007606;28;20058;-80
2021/11/23 10:45:48;;;;;;;11.75;9.60;;;;;;;8.34;74.44;95697.44;5007378;28;20084;-78
2021/11/23 10:48:14;;;;;;;9.95;8.13;;;;;;;8.35;73.85;95695.63;4991914;28;20518;-78
2021/11/23 10:50:41;;;;;;;11.27;8.57;;;;;;;8.33;74.09;95685.09;5006682;28;20030;-78
2021/11/23 10:53:16;;;;;;;12.20;8.32;;;;;;;8.31;74.46;95686.22;5007980;28;20488;-78
2021/11/23 10:55:42;;;;;;;13.70;9.73;;;;;;;8.27;74.94;95694.53;4991075;28;20567;-77
2021/11/23 10:58:09;;;;;;;12.27;9.30;;;;;;;8.33;74.58;95697.59;4991341;28;20033;-78
2021/11/23 11:00:36;;;;;;;14.48;9.48;;;;;;;8.32;74.03;95699.41;5008316;28;20420;-78
2021/11/23 11:03:02;;;;;;;11.75;9.55;;;;;;;8.35;73.93;95692.94;5006941;28;20053;-80
2021/11/23 11:05:35;;;;;;;11.45;9.02;;;;;;;8.31;73.67;95672.84;4991263;28;20397;-78
2021/11/23 11:08:01;;;;;;;10.13;8.23;;;;;;;8.34;73.45;95691.25;5006704;28;20034;-81
2021/11/23 11:10:27;;;;;;;11.55;8.32;;;;;;;8.32;73.83;95695.94;5009198;28;20029;-79
2021/11/23 11:12:53;;;;;;;13.10;9.45;;;;;;;8.25;74.35;95688.50;5009343;28;20057;-78
2021/11/23 11:15:24;;;;;;;10.23;7.68;;;;;;;8.25;73.41;95690.38;5008990;28;20053;-78
2021/11/23 11:17:50;;;;;;;10.20;8.07;;;;;;;8.28;73.55;95692.72;5007218;28;20108;-80